Time;durP1;ratioP1;P1;durP2;ratioP2;P2;SDS_P1;SDS_P2;PMS_P1;PMS_P2;Temp;Humidity;BMP_temperature;BMP_pressure;BME280_temperature;BME280_humidity;BME280_pressure;Samples;Min_cycle;Max_cycle;Signal;HPM_P1;HPM_P2
2022/12/09 00:01:21;;;;;;;2.75;2.30;;;;;;;;;;5070763;28;20033;-41
2022/12/09 00:03:47;;;;;;;2.67;2.17;;;;;;;;;;5070853;28;20020;-42
2022/12/09 00:06:17;;;;;;;5.53;2.72;;;;;;;;;;5070927;28;20356;-42
2022/12/09 00:08:42;;;;;;;2.03;1.75;;;;;;;;;;5070739;28;20032;-42
2022/12/09 00:11:08;;;;;;;3.10;2.78;;;;;;;;;;5070585;28;20032;-42
2022/12/09 00:13:33;;;;;;;3.33;2.97;;;;;;;;;;5070554;28;20075;-42
2022/12/09 00:15:59;;;;;;;3.75;2.05;;;;;;;;;;5071613;28;20041;-42
2022/12/09 00:18:24;;;;;;;7.03;2.88;;;;;;;;;;5074099;28;20520;-42
2022/12/09 00:20:50;;;;;;;4.70;2.90;;;;;;;;;;5074205;28;20508;-42
2022/12/09 00:23:15;;;;;;;3.17;2.20;;;;;;;;;;5074281;28;20031;-42
2022/12/09 00:25:41;;;;;;;8.70;3.00;;;;;;;;;;5074404;28;20028;-42
2022/12/09 00:28:06;;;;;;;4.57;2.08;;;;;;;;;;5073926;28;20043;-41
2022/12/09 00:30:31;;;;;;;5.95;3.35;;;;;;;;;;5073845;28;20059;-41
2022/12/09 00:32:57;;;;;;;4.45;2.67;;;;;;;;;;5074073;28;20124;-42
2022/12/09 00:35:22;;;;;;;4.28;2.45;;;;;;;;;;5073752;28;20493;-41
2022/12/09 00:37:48;;;;;;;4.28;2.40;;;;;;;;;;5072410;28;20097;-42
2022/12/09 00:40:14;;;;;;;4.63;2.33;;;;;;;;;;5073931;28;20044;-41
2022/12/09 00:42:40;;;;;;;6.65;2.45;;;;;;;;;;5073616;28;20029;-42
2022/12/09 00:45:06;;;;;;;5.97;3.08;;;;;;;;;;5073729;28;20056;-42
2022/12/09 00:47:32;;;;;;;5.60;3.20;;;;;;;;;;5073410;28;20486;-41
2022/12/09 00:49:58;;;;;;;4.75;2.63;;;;;;;;;;5073424;28;20028;-42
2022/12/09 00:52:24;;;;;;;4.63;2.97;;;;;;;;;;5072224;28;20489;-41
2022/12/09 00:54:49;;;;;;;4.72;2.90;;;;;;;;;;5073175;28;20060;-41
2022/12/09 00:57:15;;;;;;;3.47;2.50;;;;;;;;;;5072138;28;20044;-41
2022/12/09 00:59:41;;;;;;;3.85;2.10;;;;;;;;;;5073274;28;20043;-42
2022/12/09 01:02:06;;;;;;;2.97;2.35;;;;;;;;;;5071992;28;20025;-41
2022/12/09 01:04:32;;;;;;;7.03;3.95;;;;;;;;;;5073220;28;20047;-41
2022/12/09 01:06:57;;;;;;;3.53;2.33;;;;;;;;;;5071886;28;20032;-41
2022/12/09 01:09:23;;;;;;;3.72;1.85;;;;;;;;;;5073129;28;20071;-41
2022/12/09 01:11:49;;;;;;;5.22;2.95;;;;;;;;;;5072933;28;20499;-41
2022/12/09 01:14:14;;;;;;;5.10;3.05;;;;;;;;;;5071843;28;20032;-42
2022/12/09 01:16:39;;;;;;;5.18;3.10;;;;;;;;;;5072880;28;20467;-41
2022/12/09 01:19:06;;;;;;;8.15;2.97;;;;;;;;;;5071966;28;20146;-42
2022/12/09 01:21:32;;;;;;;7.35;2.85;;;;;;;;;;5072939;28;20053;-41
2022/12/09 01:23:58;;;;;;;5.07;2.97;;;;;;;;;;5072704;28;20127;-41
2022/12/09 01:26:23;;;;;;;4.93;2.33;;;;;;;;;;5072598;28;20506;-41
2022/12/09 01:28:51;;;;;;;3.50;2.58;;;;;;;;;;5072692;28;20027;-46
2022/12/09 01:31:20;;;;;;;4.13;1.88;;;;;;;;;;5071316;28;20198;-42
2022/12/09 01:33:45;;;;;;;3.95;2.30;;;;;;;;;;5072608;28;20032;-41
2022/12/09 01:36:13;;;;;;;2.78;2.50;;;;;;;;;;5071426;28;20047;-41
2022/12/09 01:38:39;;;;;;;2.80;2.45;;;;;;;;;;5072412;28;20024;-42
2022/12/09 01:41:04;;;;;;;3.67;2.70;;;;;;;;;;5072601;28;20020;-43
2022/12/09 01:43:30;;;;;;;3.15;1.98;;;;;;;;;;5072686;28;20024;-42
2022/12/09 01:45:57;;;;;;;4.93;2.67;;;;;;;;;;5071044;28;20028;-41
2022/12/09 01:48:24;;;;;;;6.93;2.45;;;;;;;;;;5070981;28;20033;-42
2022/12/09 01:50:51;;;;;;;3.30;2.53;;;;;;;;;;5072223;28;20042;-41
2022/12/09 01:53:18;;;;;;;3.17;2.42;;;;;;;;;;5072328;28;20487;-41
2022/12/09 01:55:44;;;;;;;6.07;2.78;;;;;;;;;;5070664;28;20052;-41
2022/12/09 01:58:10;;;;;;;3.67;2.70;;;;;;;;;;5072190;28;20039;-42
2022/12/09 02:00:35;;;;;;;3.60;2.60;;;;;;;;;;5070780;28;20036;-41
2022/12/09 02:03:02;;;;;;;10.48;3.65;;;;;;;;;;5070768;28;20028;-41
2022/12/09 02:05:27;;;;;;;5.40;3.70;;;;;;;;;;5070730;28;20016;-41
2022/12/09 02:07:57;;;;;;;5.75;3.72;;;;;;;;;;5070603;28;20052;-41
2022/12/09 02:10:22;;;;;;;4.35;3.00;;;;;;;;;;5070627;28;20056;-41
2022/12/09 02:12:58;;;;;;;7.15;2.95;;;;;;;;;;5070479;28;20037;-42
2022/12/09 02:15:29;;;;;;;4.15;2.80;;;;;;;;;;5070613;28;20063;-41
2022/12/09 02:18:00;;;;;;;6.78;3.42;;;;;;;;;;5071984;28;20060;-41
2022/12/09 02:20:28;;;;;;;6.55;2.85;;;;;;;;;;5070531;28;20036;-42
2022/12/09 02:22:53;;;;;;;3.60;2.40;;;;;;;;;;5071652;28;20356;-45
2022/12/09 02:25:28;;;;;;;5.03;2.33;;;;;;;;;;5070532;28;20027;-41
2022/12/09 02:28:20;;;;;;;6.75;2.63;;;;;;;;;;5071755;28;20379;-42
2022/12/09 02:30:48;;;;;;;2.78;2.00;;;;;;;;;;5070321;28;20044;-42
2022/12/09 02:33:24;;;;;;;3.83;2.28;;;;;;;;;;5070333;28;20020;-41
2022/12/09 02:36:00;;;;;;;3.55;2.78;;;;;;;;;;5070254;28;20475;-41
2022/12/09 02:38:26;;;;;;;5.68;2.75;;;;;;;;;;5069572;28;20025;-42
2022/12/09 02:40:52;;;;;;;3.70;2.03;;;;;;;;;;5070177;28;20036;-42
2022/12/09 02:43:20;;;;;;;4.03;2.63;;;;;;;;;;5070230;28;20490;-41
2022/12/09 02:45:46;;;;;;;3.33;2.63;;;;;;;;;;5070181;28;20356;-41
2022/12/09 02:48:13;;;;;;;3.80;2.60;;;;;;;;;;5070127;28;20127;-41
2022/12/09 02:50:40;;;;;;;4.43;2.50;;;;;;;;;;5070062;28;20043;-41
2022/12/09 02:53:08;;;;;;;9.57;2.75;;;;;;;;;;5070158;28;20116;-41
2022/12/09 02:55:35;;;;;;;4.75;2.95;;;;;;;;;;5069880;28;20052;-41
2022/12/09 02:58:00;;;;;;;5.57;2.75;;;;;;;;;;5071330;28;20052;-41
2022/12/09 03:00:27;;;;;;;4.18;2.00;;;;;;;;;;5069978;28;20114;-41
2022/12/09 03:03:02;;;;;;;4.38;3.25;;;;;;;;;;5071496;28;20060;-42
2022/12/09 03:05:28;;;;;;;6.07;2.65;;;;;;;;;;5071880;28;20032;-42
2022/12/09 03:07:53;;;;;;;4.13;2.05;;;;;;;;;;5071172;28;20534;-42
2022/12/09 03:10:24;;;;;;;2.88;1.70;;;;;;;;;;5071385;28;20036;-41
2022/12/09 03:12:53;;;;;;;3.63;2.67;;;;;;;;;;5071399;28;20043;-41
2022/12/09 03:15:21;;;;;;;5.70;2.53;;;;;;;;;;5071380;28;20414;-42
2022/12/09 03:17:47;;;;;;;2.22;1.98;;;;;;;;;;5070866;28;20042;-41
2022/12/09 03:20:15;;;;;;;3.72;2.25;;;;;;;;;;5071388;28;20029;-41
2022/12/09 03:22:42;;;;;;;4.32;2.30;;;;;;;;;;5071113;28;20024;-41
2022/12/09 03:25:14;;;;;;;4.15;2.42;;;;;;;;;;5070994;28;20471;-41
2022/12/09 03:27:51;;;;;;;4.20;3.13;;;;;;;;;;5071055;28;20031;-42
2022/12/09 03:30:18;;;;;;;2.92;2.13;;;;;;;;;;5071178;28;20120;-41
2022/12/09 03:32:44;;;;;;;6.95;1.92;;;;;;;;;;5070943;28;20044;-41
2022/12/09 03:35:12;;;;;;;3.08;2.72;;;;;;;;;;5070992;28;20079;-42
2022/12/09 03:37:38;;;;;;;2.53;2.33;;;;;;;;;;5070886;28;20455;-41
2022/12/09 03:40:06;;;;;;;3.28;2.28;;;;;;;;;;5071182;28;20149;-42
2022/12/09 03:42:35;;;;;;;6.00;2.47;;;;;;;;;;5070759;28;20029;-41
2022/12/09 03:45:06;;;;;;;5.03;2.25;;;;;;;;;;5070864;28;20033;-41
2022/12/09 03:47:32;;;;;;;3.65;2.10;;;;;;;;;;5070764;28;20083;-42
2022/12/09 03:49:57;;;;;;;4.78;2.75;;;;;;;;;;5071644;28;20032;-42
2022/12/09 03:52:30;;;;;;;5.13;3.00;;;;;;;;;;5074546;28;20119;-41
2022/12/09 03:55:02;;;;;;;3.95;2.72;;;;;;;;;;5074402;28;20128;-41
2022/12/09 03:57:28;;;;;;;3.63;2.65;;;;;;;;;;5074731;28;20056;-41
2022/12/09 03:59:56;;;;;;;3.83;2.72;;;;;;;;;;5074344;28;20063;-41
2022/12/09 04:02:21;;;;;;;4.68;2.58;;;;;;;;;;5074475;28;20036;-42
2022/12/09 04:04:47;;;;;;;5.75;2.72;;;;;;;;;;5074288;28;20024;-41
2022/12/09 04:07:12;;;;;;;3.17;2.10;;;;;;;;;;5074539;28;20040;-41
2022/12/09 04:09:39;;;;;;;2.50;2.30;;;;;;;;;;5074621;28;20020;-41
2022/12/09 04:12:05;;;;;;;3.25;2.42;;;;;;;;;;5074102;28;20440;-41
2022/12/09 04:14:30;;;;;;;4.75;2.67;;;;;;;;;;5074225;28;20028;-41
2022/12/09 04:16:56;;;;;;;4.93;2.60;;;;;;;;;;5074340;28;20359;-41
2022/12/09 04:19:21;;;;;;;2.70;2.10;;;;;;;;;;5074154;28;20036;-48
2022/12/09 04:21:46;;;;;;;4.93;3.17;;;;;;;;;;5074202;28;20120;-41
2022/12/09 04:24:12;;;;;;;2.20;1.92;;;;;;;;;;5074118;28;20025;-42
2022/12/09 04:26:38;;;;;;;4.22;2.58;;;;;;;;;;5074275;28;20036;-41
2022/12/09 04:29:03;;;;;;;3.40;2.15;;;;;;;;;;5074083;28;20027;-41
2022/12/09 04:31:29;;;;;;;3.90;2.70;;;;;;;;;;5074241;28;20040;-42
2022/12/09 04:33:54;;;;;;;6.22;3.15;;;;;;;;;;5072656;28;20017;-41
2022/12/09 04:36:19;;;;;;;7.13;2.50;;;;;;;;;;5073661;28;20149;-41
2022/12/09 04:38:45;;;;;;;4.78;2.58;;;;;;;;;;5073729;28;20056;-41
2022/12/09 04:41:11;;;;;;;4.80;2.25;;;;;;;;;;5073752;28;20032;-41
2022/12/09 04:43:36;;;;;;;3.03;1.80;;;;;;;;;;5073722;28;20024;-41
2022/12/09 04:46:03;;;;;;;3.75;2.42;;;;;;;;;;5073893;28;20044;-41
2022/12/09 04:48:28;;;;;;;2.55;1.83;;;;;;;;;;5073587;28;20028;-41
2022/12/09 04:50:54;;;;;;;3.38;2.42;;;;;;;;;;5073436;28;20036;-41
2022/12/09 04:53:20;;;;;;;2.35;1.55;;;;;;;;;;5073586;28;20020;-42
2022/12/09 04:55:45;;;;;;;3.30;2.15;;;;;;;;;;5073306;28;20055;-42
2022/12/09 04:58:10;;;;;;;3.65;2.70;;;;;;;;;;5073383;28;20166;-41
2022/12/09 05:00:36;;;;;;;2.83;2.63;;;;;;;;;;5073677;28;20029;-41
2022/12/09 05:03:01;;;;;;;2.85;2.20;;;;;;;;;;5072628;28;20495;-41
2022/12/09 05:05:27;;;;;;;3.60;2.05;;;;;;;;;;5073316;28;20467;-42
2022/12/09 05:07:52;;;;;;;3.35;2.53;;;;;;;;;;5073299;28;20447;-41
2022/12/09 05:10:18;;;;;;;3.67;1.98;;;;;;;;;;5073380;28;20175;-41
2022/12/09 05:12:43;;;;;;;3.17;2.42;;;;;;;;;;5073325;28;20024;-42
2022/12/09 05:15:09;;;;;;;4.93;2.38;;;;;;;;;;5073125;28;20036;-42
2022/12/09 05:17:34;;;;;;;2.45;1.95;;;;;;;;;;5073290;28;20157;-41
2022/12/09 05:20:00;;;;;;;2.25;1.50;;;;;;;;;;5073134;28;20029;-42
2022/12/09 05:22:26;;;;;;;3.55;2.08;;;;;;;;;;5072960;28;20024;-41
2022/12/09 05:24:51;;;;;;;3.85;1.80;;;;;;;;;;5072817;28;20032;-41
2022/12/09 05:27:16;;;;;;;3.53;2.38;;;;;;;;;;5072791;28;20079;-42
2022/12/09 05:29:42;;;;;;;4.60;1.95;;;;;;;;;;5073103;28;20448;-41
2022/12/09 05:32:07;;;;;;;4.53;2.50;;;;;;;;;;5072676;28;20123;-41
2022/12/09 05:34:33;;;;;;;4.03;1.77;;;;;;;;;;5072903;28;20033;-41
2022/12/09 05:36:59;;;;;;;2.20;1.95;;;;;;;;;;5072836;28;20401;-41
2022/12/09 05:39:24;;;;;;;5.78;2.15;;;;;;;;;;5072504;28;20020;-41
2022/12/09 05:41:49;;;;;;;3.55;1.88;;;;;;;;;;5072585;28;20047;-42
2022/12/09 05:44:15;;;;;;;5.25;1.92;;;;;;;;;;5071196;28;20055;-41
2022/12/09 05:46:41;;;;;;;1.70;1.60;;;;;;;;;;5072688;28;20017;-42
2022/12/09 05:49:06;;;;;;;1.90;1.63;;;;;;;;;;5072326;28;20539;-42
2022/12/09 05:51:32;;;;;;;3.88;1.70;;;;;;;;;;5072214;28;20143;-41
2022/12/09 05:54:01;;;;;;;2.78;1.27;;;;;;;;;;5072475;28;20103;-41
2022/12/09 05:56:26;;;;;;;3.13;1.80;;;;;;;;;;5072437;28;20117;-41
2022/12/09 05:58:53;;;;;;;2.40;2.17;;;;;;;;;;5072197;28;20466;-41
2022/12/09 06:01:19;;;;;;;3.17;2.15;;;;;;;;;;5070882;28;20116;-41
2022/12/09 06:03:45;;;;;;;2.83;2.00;;;;;;;;;;5072017;28;20039;-41
2022/12/09 06:06:12;;;;;;;3.65;2.20;;;;;;;;;;5072055;28;20024;-42
2022/12/09 06:08:38;;;;;;;1.90;1.70;;;;;;;;;;5071933;28;20031;-41
2022/12/09 06:11:07;;;;;;;5.30;3.22;;;;;;;;;;5071897;28;20032;-41
2022/12/09 06:13:32;;;;;;;2.95;2.00;;;;;;;;;;5071158;28;20526;-41
2022/12/09 06:16:02;;;;;;;2.22;2.00;;;;;;;;;;5071746;28;20111;-41
2022/12/09 06:18:28;;;;;;;2.38;2.05;;;;;;;;;;5071845;28;20147;-41
2022/12/09 06:20:53;;;;;;;2.45;1.92;;;;;;;;;;5070430;28;20096;-42
2022/12/09 06:23:19;;;;;;;2.40;1.50;;;;;;;;;;5071844;28;20623;-41
2022/12/09 06:25:44;;;;;;;2.40;1.70;;;;;;;;;;5072032;28;20529;-41
2022/12/09 06:28:10;;;;;;;3.00;1.73;;;;;;;;;;5071536;28;20131;-41
2022/12/09 06:30:35;;;;;;;4.15;2.00;;;;;;;;;;5071905;28;20032;-41
2022/12/09 06:33:01;;;;;;;2.60;1.38;;;;;;;;;;5071621;28;20115;-41
2022/12/09 06:35:26;;;;;;;3.97;2.00;;;;;;;;;;5071901;28;20066;-41
2022/12/09 06:37:52;;;;;;;3.55;2.33;;;;;;;;;;5071685;28;20036;-41
2022/12/09 06:40:20;;;;;;;1.40;1.27;;;;;;;;;;5071456;28;20103;-41
2022/12/09 06:42:49;;;;;;;2.72;1.65;;;;;;;;;;5071582;28;20074;-42
2022/12/09 06:45:15;;;;;;;1.92;1.60;;;;;;;;;;5070255;28;20016;-42
2022/12/09 06:47:40;;;;;;;3.88;2.13;;;;;;;;;;5071461;28;20033;-41
2022/12/09 06:50:06;;;;;;;2.60;1.58;;;;;;;;;;5071524;28;20079;-41
2022/12/09 06:52:32;;;;;;;1.70;1.33;;;;;;;;;;5071589;28;20048;-42
2022/12/09 06:54:57;;;;;;;3.58;1.88;;;;;;;;;;5071285;28;20045;-41
2022/12/09 06:57:23;;;;;;;2.05;1.48;;;;;;;;;;5071255;28;20082;-42
2022/12/09 06:59:48;;;;;;;4.22;1.20;;;;;;;;;;5071320;28;20099;-41
2022/12/09 07:02:14;;;;;;;2.80;1.67;;;;;;;;;;5071620;28;20034;-42
2022/12/09 07:04:39;;;;;;;2.97;1.60;;;;;;;;;;5071516;28;20024;-41
2022/12/09 07:07:04;;;;;;;1.50;1.30;;;;;;;;;;5071200;28;20074;-41
2022/12/09 07:09:29;;;;;;;2.05;1.90;;;;;;;;;;5071357;28;20024;-41
2022/12/09 07:11:55;;;;;;;4.45;1.70;;;;;;;;;;5071006;28;20040;-41
2022/12/09 07:14:20;;;;;;;2.25;1.48;;;;;;;;;;5071294;28;20047;-41
2022/12/09 07:16:46;;;;;;;3.25;1.90;;;;;;;;;;5071304;28;20032;-42
2022/12/09 07:19:16;;;;;;;2.63;1.27;;;;;;;;;;5071443;28;20028;-41
2022/12/09 07:21:42;;;;;;;1.73;1.25;;;;;;;;;;5071234;28;20036;-41
2022/12/09 07:24:08;;;;;;;4.20;2.35;;;;;;;;;;5071061;28;20482;-42
2022/12/09 07:26:34;;;;;;;3.42;3.13;;;;;;;;;;5074600;28;20032;-41
2022/12/09 07:29:03;;;;;;;2.35;1.83;;;;;;;;;;5075052;28;20103;-42
2022/12/09 07:31:29;;;;;;;2.70;1.60;;;;;;;;;;5075087;28;20036;-42
2022/12/09 07:33:55;;;;;;;2.92;2.10;;;;;;;;;;5074950;28;20016;-41
2022/12/09 07:36:22;;;;;;;2.80;2.08;;;;;;;;;;5073931;28;20130;-41
2022/12/09 07:38:47;;;;;;;2.70;1.85;;;;;;;;;;5074929;28;20017;-41
2022/12/09 07:41:24;;;;;;;2.65;1.42;;;;;;;;;;5074778;28;20035;-41
2022/12/09 07:43:49;;;;;;;2.42;1.70;;;;;;;;;;5074839;28;20356;-43
2022/12/09 07:46:17;;;;;;;1.75;1.33;;;;;;;;;;5074918;28;20027;-42
2022/12/09 07:48:43;;;;;;;5.07;1.73;;;;;;;;;;5074984;28;20036;-41
2022/12/09 07:51:08;;;;;;;2.22;1.13;;;;;;;;;;5074863;28;20646;-42
2022/12/09 07:53:34;;;;;;;3.15;1.70;;;;;;;;;;5074652;28;20050;-43
2022/12/09 07:56:01;;;;;;;2.33;1.63;;;;;;;;;;5074374;28;20048;-42
2022/12/09 07:58:27;;;;;;;4.28;1.70;;;;;;;;;;5074762;28;20111;-41
2022/12/09 08:00:52;;;;;;;3.05;2.00;;;;;;;;;;5074785;28;20117;-41
2022/12/09 08:03:17;;;;;;;2.53;1.83;;;;;;;;;;5074553;28;20056;-42
2022/12/09 08:05:50;;;;;;;4.60;1.88;;;;;;;;;;5074388;28;20017;-42
2022/12/09 08:08:15;;;;;;;2.08;1.70;;;;;;;;;;5074633;28;20039;-41
2022/12/09 08:10:41;;;;;;;3.78;2.10;;;;;;;;;;5074164;28;20108;-41
2022/12/09 08:13:06;;;;;;;7.13;1.48;;;;;;;;;;5074251;28;20041;-41
2022/12/09 08:15:31;;;;;;;2.53;2.05;;;;;;;;;;5074207;28;20024;-41
2022/12/09 08:17:57;;;;;;;3.72;1.65;;;;;;;;;;5074009;28;20047;-42
2022/12/09 08:20:22;;;;;;;3.95;1.67;;;;;;;;;;5074145;28;20062;-42
2022/12/09 08:22:48;;;;;;;3.03;1.75;;;;;;;;;;5073963;28;20095;-42
2022/12/09 08:25:14;;;;;;;5.65;1.80;;;;;;;;;;5074066;28;20009;-42
2022/12/09 08:27:39;;;;;;;4.45;1.35;;;;;;;;;;5072748;28;20055;-41
2022/12/09 08:30:05;;;;;;;5.85;1.65;;;;;;;;;;5073738;28;20012;-42
2022/12/09 08:32:31;;;;;;;3.08;2.00;;;;;;;;;;5073960;28;20033;-42
2022/12/09 08:34:57;;;;;;;2.25;1.50;;;;;;;;;;5074122;28;20127;-41
2022/12/09 08:37:23;;;;;;;1.98;1.67;;;;;;;;;;5071394;28;20040;-42
2022/12/09 08:39:49;;;;;;;6.03;1.33;;;;;;;;;;5074001;28;20028;-42
2022/12/09 08:42:15;;;;;;;3.83;1.63;;;;;;;;;;5072438;28;20033;-42
2022/12/09 08:44:40;;;;;;;1.48;1.25;;;;;;;;;;5073780;28;20025;-42
2022/12/09 08:47:06;;;;;;;1.75;1.65;;;;;;;;;;5073597;28;20024;-42
2022/12/09 08:49:31;;;;;;;6.07;2.92;;;;;;;;;;5072675;28;20398;-41
2022/12/09 08:51:57;;;;;;;4.32;1.20;;;;;;;;;;5073413;28;20469;-41
2022/12/09 08:54:22;;;;;;;1.45;1.20;;;;;;;;;;5073404;28;20044;-42
2022/12/09 08:56:49;;;;;;;1.65;1.25;;;;;;;;;;5073758;28;20422;-42
2022/12/09 08:59:15;;;;;;;2.50;1.35;;;;;;;;;;5073687;28;20107;-41
2022/12/09 09:01:40;;;;;;;1.42;1.27;;;;;;;;;;5073412;28;20108;-42
2022/12/09 09:04:07;;;;;;;4.85;1.95;;;;;;;;;;5072037;28;20035;-42
2022/12/09 09:06:32;;;;;;;1.25;0.88;;;;;;;;;;5073274;28;20063;-42
2022/12/09 09:08:58;;;;;;;1.20;1.10;;;;;;;;;;5073226;28;20040;-42
2022/12/09 09:11:24;;;;;;;1.15;0.90;;;;;;;;;;5073212;28;20041;-42
2022/12/09 09:13:50;;;;;;;1.42;1.00;;;;;;;;;;5073029;28;20456;-42
2022/12/09 09:16:16;;;;;;;1.73;1.52;;;;;;;;;;5073169;28;20028;-41
2022/12/09 09:18:42;;;;;;;1.48;1.23;;;;;;;;;;5073098;28;20628;-42
2022/12/09 09:21:09;;;;;;;3.17;1.30;;;;;;;;;;5072824;28;20033;-42
2022/12/09 09:23:34;;;;;;;1.52;1.10;;;;;;;;;;5073260;28;20419;-42
2022/12/09 09:26:00;;;;;;;1.95;1.23;;;;;;;;;;5072804;28;20060;-42
2022/12/09 09:28:26;;;;;;;1.60;1.30;;;;;;;;;;5072812;28;20025;-41
2022/12/09 09:30:58;;;;;;;2.78;1.15;;;;;;;;;;5072992;28;20036;-41
2022/12/09 09:33:23;;;;;;;1.27;1.05;;;;;;;;;;5071467;28;20036;-41
2022/12/09 09:36:00;;;;;;;2.58;1.13;;;;;;;;;;5072569;28;20099;-41
2022/12/09 09:38:25;;;;;;;0.75;0.75;;;;;;;;;;5072916;28;20032;-42
2022/12/09 09:40:51;;;;;;;0.85;0.85;;;;;;;;;;5072528;28;20352;-42
2022/12/09 09:43:19;;;;;;;1.30;1.20;;;;;;;;;;5072585;28;20024;-41
2022/12/09 09:45:44;;;;;;;1.02;1.02;;;;;;;;;;5071586;28;20051;-42
2022/12/09 09:48:13;;;;;;;6.78;1.13;;;;;;;;;;5072436;28;20550;-42
2022/12/09 09:50:48;;;;;;;1.48;0.98;;;;;;;;;;5072638;28;20694;-42
2022/12/09 09:53:30;;;;;;;1.58;1.10;;;;;;;;;;5072367;28;20021;-43
2022/12/09 09:56:00;;;;;;;1.08;0.98;;;;;;;;;;5072102;28;20055;-43
2022/12/09 09:58:32;;;;;;;1.05;0.95;;;;;;;;;;5072331;28;20028;-42
2022/12/09 10:01:05;;;;;;;2.75;0.95;;;;;;;;;;5071210;28;20036;-42
2022/12/09 10:03:34;;;;;;;1.48;0.82;;;;;;;;;;5072185;28;20036;-43
2022/12/09 10:06:05;;;;;;;0.77;0.77;;;;;;;;;;5072293;28;20055;-42
2022/12/09 10:08:48;;;;;;;0.75;0.68;;;;;;;;;;5072189;28;20025;-42
2022/12/09 10:11:33;;;;;;;1.10;1.00;;;;;;;;;;5072175;28;20052;-41
2022/12/09 10:14:04;;;;;;;1.10;0.63;;;;;;;;;;5071955;28;20024;-42
2022/12/09 10:16:29;;;;;;;1.52;1.13;;;;;;;;;;5070632;28;20441;-41
2022/12/09 10:19:01;;;;;;;1.75;0.88;;;;;;;;;;5072082;28;20031;-42
2022/12/09 10:21:27;;;;;;;2.03;1.00;;;;;;;;;;5071879;28;20047;-42
2022/12/09 10:23:53;;;;;;;1.02;0.98;;;;;;;;;;5071956;28;20036;-41
2022/12/09 10:26:22;;;;;;;1.77;1.13;;;;;;;;;;5072084;28;20025;-41
2022/12/09 10:28:52;;;;;;;0.88;0.88;;;;;;;;;;5071953;28;20035;-41
2022/12/09 10:31:17;;;;;;;4.32;1.15;;;;;;;;;;5071557;28;20091;-42
2022/12/09 10:33:43;;;;;;;0.73;0.73;;;;;;;;;;5071677;28;20028;-42
2022/12/09 10:36:31;;;;;;;1.45;0.60;;;;;;;;;;5071486;28;20033;-42
2022/12/09 10:38:56;;;;;;;1.40;0.80;;;;;;;;;;5071548;28;20471;-41
2022/12/09 10:43:33;;;;;;;1.33;1.02;;;;;;;;;;5071500;28;20072;-42
2022/12/09 10:44:27;;;;;;;0.98;0.80;;;;;;;;;;5071499;28;20479;-41
2022/12/09 10:47:16;;;;;;;0.45;0.45;;;;;;;;;;5071487;28;20082;-41
2022/12/09 10:49:41;;;;;;;0.80;0.60;;;;;;;;;;5065846;28;20131;-42
2022/12/09 10:52:07;;;;;;;1.88;0.90;;;;;;;;;;5071313;28;20115;-41
2022/12/09 10:54:34;;;;;;;1.35;1.15;;;;;;;;;;5071203;28;20040;-41
2022/12/09 10:57:02;;;;;;;0.77;0.77;;;;;;;;;;5071331;28;20068;-42
2022/12/09 10:59:28;;;;;;;0.32;0.32;;;;;;;;;;5070781;28;20028;-41
2022/12/09 11:01:55;;;;;;;1.30;0.73;;;;;;;;;;5071293;28;20028;-42
2022/12/09 11:04:25;;;;;;;2.15;0.85;;;;;;;;;;5071349;28;20050;-42
2022/12/09 11:06:52;;;;;;;0.70;0.50;;;;;;;;;;5071363;28;20032;-41
2022/12/09 11:09:26;;;;;;;2.17;0.88;;;;;;;;;;5070044;28;20049;-41
2022/12/09 11:11:51;;;;;;;0.77;0.77;;;;;;;;;;5071073;28;20533;-41
2022/12/09 11:14:23;;;;;;;0.52;0.50;;;;;;;;;;5071500;28;20025;-41
2022/12/09 11:16:53;;;;;;;0.57;0.57;;;;;;;;;;5071094;28;20089;-42
2022/12/09 11:19:27;;;;;;;1.10;0.93;;;;;;;;;;5071231;28;20086;-44
2022/12/09 11:22:11;;;;;;;0.70;0.70;;;;;;;;;;5071259;28;20033;-41
2022/12/09 11:24:36;;;;;;;1.02;0.85;;;;;;;;;;5071520;28;20032;-42
2022/12/09 11:27:01;;;;;;;0.73;0.60;;;;;;;;;;5071255;28;20039;-43
2022/12/09 11:29:27;;;;;;;0.73;0.50;;;;;;;;;;5071335;28;20028;-41
2022/12/09 11:31:52;;;;;;;0.75;0.52;;;;;;;;;;5071230;28;20494;-42
2022/12/09 11:34:23;;;;;;;0.50;0.50;;;;;;;;;;5070946;28;20074;-42
2022/12/09 11:36:53;;;;;;;0.90;0.70;;;;;;;;;;5070948;28;20032;-42
2022/12/09 11:39:22;;;;;;;2.70;0.45;;;;;;;;;;5070954;28;20527;-42
2022/12/09 11:44:36;;;;;;;0.85;0.60;;;;;;;;;;5071108;28;20028;-41
2022/12/09 11:47:21;;;;;;;0.50;0.45;;;;;;;;;;5070840;28;20138;-42
2022/12/09 11:49:49;;;;;;;1.38;0.70;;;;;;;;;;5071054;28;20024;-42
2022/12/09 11:52:17;;;;;;;1.30;1.20;;;;;;;;;;5069585;28;20028;-41
2022/12/09 11:54:48;;;;;;;0.60;0.50;;;;;;;;;;5070643;28;20052;-41
2022/12/09 11:57:32;;;;;;;0.98;0.50;;;;;;;;;;5070733;28;20067;-42
2022/12/09 12:00:00;;;;;;;0.50;0.50;;;;;;;;;;5070785;28;20356;-42
2022/12/09 12:02:34;;;;;;;2.03;0.57;;;;;;;;;;5071136;28;20566;-42
2022/12/09 12:04:59;;;;;;;0.73;0.73;;;;;;;;;;5070944;28;20036;-42
2022/12/09 12:07:31;;;;;;;0.85;0.85;;;;;;;;;;5071001;28;20111;-42
2022/12/09 12:09:57;;;;;;;0.52;0.52;;;;;;;;;;5070624;28;20120;-41
2022/12/09 12:12:40;;;;;;;0.80;0.70;;;;;;;;;;5073517;28;20039;-42
2022/12/09 12:15:05;;;;;;;;;;;;;;;;;;5074930;28;20036;-42
2022/12/09 12:17:34;;;;;;;0.65;0.50;;;;;;;;;;5074436;28;19908;-42
2022/12/09 12:19:59;;;;;;;0.80;0.80;;;;;;;;;;5074018;28;20029;-42
2022/12/09 12:22:44;;;;;;;0.50;0.40;;;;;;;;;;5074174;28;20016;-41
2022/12/09 12:25:19;;;;;;;0.65;0.50;;;;;;;;;;5073940;28;20120;-41
2022/12/09 12:28:00;;;;;;;0.40;0.40;;;;;;;;;;5074020;28;20035;-42
2022/12/09 12:30:35;;;;;;;0.57;0.57;;;;;;;;;;5074225;28;20395;-42
2022/12/09 12:33:06;;;;;;;0.80;0.70;;;;;;;;;;5074127;28;20402;-42
2022/12/09 12:35:55;;;;;;;0.40;0.40;;;;;;;;;;5072611;28;20467;-42
2022/12/09 12:38:24;;;;;;;1.67;0.73;;;;;;;;;;5064467;28;20048;-42
2022/12/09 12:41:28;;;;;;;0.40;0.40;;;;;;;;;;5073775;28;20032;-41
2022/12/09 12:47:00;;;;;;;3.63;0.80;;;;;;;;;;5031298;28;20055;-42
2022/12/09 12:49:26;;;;;;;1.92;0.70;;;;;;;;;;5062624;28;20040;-42
2022/12/09 12:52:14;;;;;;;1.13;1.00;;;;;;;;;;5073508;28;20036;-41
2022/12/09 12:54:46;;;;;;;0.52;0.50;;;;;;;;;;5053666;28;20040;-42
2022/12/09 12:57:12;;;;;;;1.73;0.93;;;;;;;;;;5073442;28;20033;-42
2022/12/09 12:59:43;;;;;;;0.95;0.90;;;;;;;;;;5073735;28;20031;-41
2022/12/09 13:02:20;;;;;;;2.40;1.02;;;;;;;;;;5073654;28;20536;-41
2022/12/09 13:05:06;;;;;;;1.70;0.85;;;;;;;;;;5073645;28;20422;-41
2022/12/09 13:07:35;;;;;;;0.55;0.55;;;;;;;;;;5073136;28;20036;-41
2022/12/09 13:10:07;;;;;;;0.30;0.30;;;;;;;;;;5073502;28;20027;-42
2022/12/09 13:12:53;;;;;;;2.25;0.80;;;;;;;;;;5073217;28;20036;-41
2022/12/09 13:15:31;;;;;;;0.35;0.35;;;;;;;;;;5073245;28;20021;-42
2022/12/09 13:17:59;;;;;;;0.30;0.30;;;;;;;;;;5073042;28;20035;-41
2022/12/09 13:20:28;;;;;;;0.55;0.50;;;;;;;;;;5071779;28;20017;-42
2022/12/09 13:23:02;;;;;;;1.42;0.40;;;;;;;;;;5072317;28;20040;-41
2022/12/09 13:25:57;;;;;;;0.32;0.32;;;;;;;;;;5073023;28;20041;-42
2022/12/09 13:28:32;;;;;;;1.35;0.50;;;;;;;;;;5035833;28;20598;-42
2022/12/09 13:30:58;;;;;;;5.93;0.70;;;;;;;;;;5073088;28;20055;-42
2022/12/09 13:33:37;;;;;;;1.50;0.80;;;;;;;;;;5072814;28;20048;-42
2022/12/09 13:36:07;;;;;;;0.50;0.50;;;;;;;;;;5071253;28;20028;-42
2022/12/09 13:38:32;;;;;;;1.50;1.27;;;;;;;;;;5072734;28;20044;-42
2022/12/09 13:40:58;;;;;;;0.95;0.95;;;;;;;;;;5071390;28;20036;-42
2022/12/09 13:43:29;;;;;;;1.33;1.02;;;;;;;;;;5071308;28;20374;-41
2022/12/09 13:45:56;;;;;;;0.70;0.50;;;;;;;;;;5071207;28;20032;-42
2022/12/09 13:48:21;;;;;;;1.45;0.68;;;;;;;;;;5072419;28;20078;-42
2022/12/09 13:50:50;;;;;;;0.63;0.63;;;;;;;;;;5072654;28;20044;-42
2022/12/09 13:53:18;;;;;;;2.42;0.80;;;;;;;;;;5072675;28;20016;-41
2022/12/09 13:55:50;;;;;;;3.15;0.70;;;;;;;;;;5072211;28;20495;-42
2022/12/09 13:58:23;;;;;;;0.73;0.68;;;;;;;;;;5072238;28;20055;-42
2022/12/09 14:01:07;;;;;;;0.77;0.60;;;;;;;;;;5072503;28;20030;-42
2022/12/09 14:03:34;;;;;;;1.33;0.50;;;;;;;;;;5072426;28;20025;-42
2022/12/09 14:06:02;;;;;;;0.73;0.70;;;;;;;;;;5072223;28;20119;-42
2022/12/09 14:08:32;;;;;;;0.73;0.52;;;;;;;;;;5072431;28;20028;-42
2022/12/09 14:11:17;;;;;;;1.38;0.80;;;;;;;;;;5071886;28;20032;-42
2022/12/09 14:13:43;;;;;;;0.50;0.50;;;;;;;;;;5071932;28;20419;-41
2022/12/09 14:16:14;;;;;;;0.90;0.63;;;;;;;;;;5071833;28;20059;-41
2022/12/09 14:18:40;;;;;;;0.50;0.50;;;;;;;;;;5071893;28;20041;-41
2022/12/09 14:21:26;;;;;;;1.23;0.55;;;;;;;;;;5070353;28;20024;-42
2022/12/09 14:24:07;;;;;;;0.20;0.20;;;;;;;;;;5071471;28;20376;-43
2022/12/09 14:26:52;;;;;;;0.60;0.60;;;;;;;;;;5071724;28;20124;-42
2022/12/09 14:29:39;;;;;;;0.80;0.30;;;;;;;;;;5050140;28;20611;-42
2022/12/09 14:32:16;;;;;;;0.25;0.25;;;;;;;;;;5071560;28;20047;-42
2022/12/09 14:34:42;;;;;;;0.82;0.50;;;;;;;;;;5071215;28;20398;-42
2022/12/09 14:37:28;;;;;;;1.38;0.85;;;;;;;;;;5071723;28;20017;-42
2022/12/09 14:40:14;;;;;;;2.15;1.40;;;;;;;;;;5071134;28;20089;-42
2022/12/09 14:42:58;;;;;;;1.83;0.80;;;;;;;;;;5050132;28;20071;-41
2022/12/09 14:45:23;;;;;;;0.40;0.40;;;;;;;;;;5071448;28;20047;-42
2022/12/09 14:47:49;;;;;;;0.60;0.50;;;;;;;;;;5071548;28;20013;-42
2022/12/09 14:50:19;;;;;;;0.63;0.57;;;;;;;;;;5071736;28;20060;-41
2022/12/09 14:52:51;;;;;;;1.75;0.60;;;;;;;;;;5071508;28;20388;-42
2022/12/09 14:55:17;;;;;;;3.67;1.23;;;;;;;;;;5071076;28;20044;-42
2022/12/09 14:57:46;;;;;;;4.15;1.20;;;;;;;;;;5071369;28;20120;-42